Time;durP1;ratioP1;P1;durP2;ratioP2;P2;SDS_P1;SDS_P2;PMS_P1;PMS_P2;Temp;Humidity;BMP_temperature;BMP_pressure;BME280_temperature;BME280_humidity;BME280_pressure;Samples;Min_cycle;Max_cycle;Signal;HPM_P1;HPM_P2
2023/07/09 00:00:40;;;;;;;;;;;21.00;85.90;;;;;;2096067;28;20304;-68
2023/07/09 00:01:40;;;;;;;;;;;20.90;86.00;;;;;;2094952;28;19916;-67
2023/07/09 00:02:41;;;;;;;;;;;20.90;86.40;;;;;;2098028;28;20394;-67
2023/07/09 00:03:41;;;;;;;;;;;20.90;86.50;;;;;;2094279;28;20200;-67
2023/07/09 00:04:42;;;;;;;;;;;20.80;86.60;;;;;;2098403;28;19912;-67
2023/07/09 00:05:45;;;;;;;;;;;20.80;86.80;;;;;;2096650;28;19987;-68
2023/07/09 00:06:45;;;;;;;;;;;20.80;87.00;;;;;;2096757;28;19928;-67
2023/07/09 00:07:46;;;;;;;;;;;20.80;87.40;;;;;;2096567;28;19954;-68
2023/07/09 00:08:47;;;;;;;;;;;20.70;87.60;;;;;;2091190;28;20371;-67
2023/07/09 00:09:48;;;;;;;;;;;20.70;87.80;;;;;;2099981;28;19935;-67
2023/07/09 00:10:49;;;;;;;;;;;20.70;88.00;;;;;;2098399;28;20342;-67
2023/07/09 00:11:49;;;;;;;;;;;20.60;88.30;;;;;;2098246;28;19997;-68
2023/07/09 00:12:50;;;;;;;;;;;20.60;88.70;;;;;;2097489;28;19955;-67
2023/07/09 00:13:50;;;;;;;;;;;20.60;88.80;;;;;;2097984;28;20286;-67
2023/07/09 00:14:51;;;;;;;;;;;20.60;89.00;;;;;;2099697;28;19934;-67
2023/07/09 00:15:52;;;;;;;;;;;20.60;89.30;;;;;;2097636;28;19911;-68
2023/07/09 00:16:53;;;;;;;;;;;20.50;89.40;;;;;;2096153;28;19917;-67
2023/07/09 00:17:53;;;;;;;;;;;20.50;89.60;;;;;;2095996;28;19916;-67
2023/07/09 00:18:54;;;;;;;;;;;20.50;90.00;;;;;;2097651;28;19926;-67
2023/07/09 00:19:54;;;;;;;;;;;20.50;90.00;;;;;;2099870;28;19916;-67
2023/07/09 00:20:55;;;;;;;;;;;20.50;90.00;;;;;;2093169;28;20378;-67
2023/07/09 00:21:55;;;;;;;;;;;20.50;90.10;;;;;;2098108;28;19948;-67
2023/07/09 00:22:57;;;;;;;;;;;20.50;90.10;;;;;;2097481;28;20020;-67
2023/07/09 00:23:59;;;;;;;;;;;20.50;90.10;;;;;;2098951;28;19916;-68
2023/07/09 00:24:59;;;;;;;;;;;20.40;90.20;;;;;;2096629;28;20018;-68
2023/07/09 00:26:02;;;;;;;;;;;20.50;90.30;;;;;;2096732;28;19920;-67
2023/07/09 00:27:04;;;;;;;;;;;20.50;90.40;;;;;;2096634;28;19913;-67
2023/07/09 00:28:04;;;;;;;;;;;20.40;90.50;;;;;;2095251;28;20264;-68
2023/07/09 00:29:05;;;;;;;;;;;20.40;90.40;;;;;;2098215;28;19921;-68
2023/07/09 00:30:08;;;;;;;;;;;20.40;90.50;;;;;;2094347;28;20420;-68
2023/07/09 00:31:15;;;;;;;;;;;20.40;90.60;;;;;;2097803;28;19946;-68
2023/07/09 00:32:16;;;;;;;;;;;20.40;90.70;;;;;;2097813;28;19915;-68
2023/07/09 00:33:19;;;;;;;;;;;20.40;90.80;;;;;;2098080;28;20259;-68
2023/07/09 00:34:21;;;;;;;;;;;20.30;90.80;;;;;;2098065;28;19916;-68
2023/07/09 00:35:22;;;;;;;;;;;20.30;90.90;;;;;;2097956;28;19912;-67
2023/07/09 00:36:26;;;;;;;;;;;20.40;91.00;;;;;;2095835;28;19951;-68
2023/07/09 00:37:26;;;;;;;;;;;20.30;91.10;;;;;;2105136;28;19911;-68
2023/07/09 00:38:27;;;;;;;;;;;20.40;91.20;;;;;;2090552;28;20034;-67
2023/07/09 00:39:27;;;;;;;;;;;20.40;91.30;;;;;;2098982;28;19920;-68
2023/07/09 00:40:28;;;;;;;;;;;20.40;91.30;;;;;;2097389;28;20366;-69
2023/07/09 00:41:30;;;;;;;;;;;20.30;91.40;;;;;;2097537;28;20077;-68
2023/07/09 00:42:30;;;;;;;;;;;20.30;91.40;;;;;;2096280;28;19928;-68
2023/07/09 00:43:35;;;;;;;;;;;20.30;91.60;;;;;;2097227;28;20295;-67
2023/07/09 00:44:35;;;;;;;;;;;20.30;91.60;;;;;;2097899;28;20298;-66
2023/07/09 00:45:36;;;;;;;;;;;20.30;91.70;;;;;;2098313;28;19912;-69
2023/07/09 00:46:49;;;;;;;;;;;20.30;91.70;;;;;;2095650;28;19920;-68
2023/07/09 00:47:54;;;;;;;;;;;20.30;91.80;;;;;;2095680;28;19919;-68
2023/07/09 00:49:00;;;;;;;;;;;20.20;91.90;;;;;;2096696;28;19921;-68
2023/07/09 00:50:09;;;;;;;;;;;20.20;92.00;;;;;;2095690;28;19923;-68
2023/07/09 00:51:11;;;;;;;;;;;20.20;92.10;;;;;;2095524;28;20399;-68
2023/07/09 00:52:29;;;;;;;;;;;20.20;92.20;;;;;;2096431;28;19913;-68
2023/07/09 00:53:31;;;;;;;;;;;20.20;92.30;;;;;;2096215;28;19923;-68
2023/07/09 00:54:36;;;;;;;;;;;20.30;92.40;;;;;;2095762;28;20407;-68
2023/07/09 00:55:39;;;;;;;;;;;20.20;92.40;;;;;;2095755;28;20003;-68
2023/07/09 00:56:41;;;;;;;;;;;20.20;92.50;;;;;;2097962;28;20011;-68
2023/07/09 00:57:42;;;;;;;;;;;20.20;92.50;;;;;;2089734;28;19956;-68
2023/07/09 00:58:46;;;;;;;;;;;20.20;92.70;;;;;;2093240;28;19942;-68
2023/07/09 00:59:53;;;;;;;;;;;20.10;92.80;;;;;;2093138;28;20904;-68
2023/07/09 01:00:56;;;;;;;;;;;20.20;92.80;;;;;;2096487;28;19920;-68
2023/07/09 01:01:57;;;;;;;;;;;20.10;92.90;;;;;;2093082;28;20019;-68
2023/07/09 01:02:58;;;;;;;;;;;20.10;93.00;;;;;;2097792;28;20532;-68
2023/07/09 01:03:59;;;;;;;;;;;20.20;93.20;;;;;;2099303;28;19916;-68
2023/07/09 01:05:01;;;;;;;;;;;20.10;93.30;;;;;;2096301;28;20375;-68
2023/07/09 01:06:01;;;;;;;;;;;20.10;93.40;;;;;;2096287;28;19912;-68
2023/07/09 01:07:02;;;;;;;;;;;20.10;93.50;;;;;;2095773;28;19913;-68
2023/07/09 01:08:02;;;;;;;;;;;20.10;93.50;;;;;;2092621;28;19959;-67
2023/07/09 01:09:03;;;;;;;;;;;20.10;93.60;;;;;;2087257;28;19924;-68
2023/07/09 01:10:04;;;;;;;;;;;20.10;93.80;;;;;;2088558;28;19916;-68
2023/07/09 01:11:08;;;;;;;;;;;20.10;93.90;;;;;;2103928;28;19969;-68
2023/07/09 01:12:09;;;;;;;;;;;20.10;94.00;;;;;;2101590;28;19998;-68
2023/07/09 01:13:11;;;;;;;;;;;20.10;94.00;;;;;;2096348;28;19924;-69
2023/07/09 01:14:13;;;;;;;;;;;20.10;94.20;;;;;;2095428;28;19927;-67
2023/07/09 01:15:15;;;;;;;;;;;20.10;94.20;;;;;;2095738;28;20347;-67
2023/07/09 01:16:15;;;;;;;;;;;20.00;94.20;;;;;;2094653;28;19923;-69
2023/07/09 01:17:16;;;;;;;;;;;20.10;94.20;;;;;;2094862;28;19917;-67
2023/07/09 01:18:17;;;;;;;;;;;20.00;94.20;;;;;;2103351;28;19916;-67
2023/07/09 01:19:23;;;;;;;;;;;20.00;94.30;;;;;;2085027;28;19921;-67
2023/07/09 01:20:26;;;;;;;;;;;20.00;94.30;;;;;;2095251;28;20019;-67
2023/07/09 01:21:27;;;;;;;;;;;20.00;94.40;;;;;;2097809;28;19916;-67
2023/07/09 01:22:29;;;;;;;;;;;20.00;94.60;;;;;;2098656;28;19912;-69
2023/07/09 01:23:30;;;;;;;;;;;20.00;94.70;;;;;;2096831;28;19970;-67
2023/07/09 01:24:46;;;;;;;;;;;20.00;94.90;;;;;;2096429;28;19981;-69
2023/07/09 01:25:52;;;;;;;;;;;20.00;94.90;;;;;;2095273;28;19930;-69
2023/07/09 01:26:54;;;;;;;;;;;19.90;95.00;;;;;;2093858;28;19923;-69
2023/07/09 01:27:54;;;;;;;;;;;19.90;95.00;;;;;;2098146;28;19919;-69
2023/07/09 01:28:55;;;;;;;;;;;19.90;95.00;;;;;;2095960;28;19920;-67
2023/07/09 01:29:57;;;;;;;;;;;19.90;95.00;;;;;;2095375;28;19917;-68
2023/07/09 01:30:58;;;;;;;;;;;19.80;95.10;;;;;;2095515;28;19917;-69
2023/07/09 01:31:58;;;;;;;;;;;19.80;95.30;;;;;;2099639;28;19955;-69
2023/07/09 01:33:00;;;;;;;;;;;19.80;95.30;;;;;;2093283;28;19943;-68
2023/07/09 01:34:01;;;;;;;;;;;19.80;95.40;;;;;;2097390;28;19959;-68
2023/07/09 01:35:06;;;;;;;;;;;19.80;95.30;;;;;;2096348;28;19923;-67
2023/07/09 01:36:07;;;;;;;;;;;19.80;95.50;;;;;;2096467;28;19916;-68
2023/07/09 01:37:08;;;;;;;;;;;19.80;95.50;;;;;;2094540;28;19963;-68
2023/07/09 01:38:09;;;;;;;;;;;19.80;95.70;;;;;;2096365;28;19923;-68
2023/07/09 01:39:10;;;;;;;;;;;19.80;95.40;;;;;;2097286;28;20230;-68
2023/07/09 01:40:11;;;;;;;;;;;19.80;95.30;;;;;;2087085;28;19917;-67
2023/07/09 01:41:13;;;;;;;;;;;19.80;95.40;;;;;;2093197;28;19916;-66
2023/07/09 01:42:14;;;;;;;;;;;19.70;95.50;;;;;;2093446;28;20001;-66
2023/07/09 01:43:14;;;;;;;;;;;19.70;95.70;;;;;;2098482;28;19913;-66
2023/07/09 01:44:15;;;;;;;;;;;19.70;95.90;;;;;;2097471;28;19916;-67
2023/07/09 01:45:17;;;;;;;;;;;19.70;96.00;;;;;;2093828;28;19976;-67
2023/07/09 01:46:18;;;;;;;;;;;19.70;96.00;;;;;;2097432;28;19912;-67
2023/07/09 01:47:19;;;;;;;;;;;19.70;96.10;;;;;;2096534;28;19912;-67
2023/07/09 01:48:20;;;;;;;;;;;19.70;96.20;;;;;;2097873;28;19942;-68
2023/07/09 01:49:20;;;;;;;;;;;19.70;96.30;;;;;;2100104;28;19979;-68
2023/07/09 01:50:23;;;;;;;;;;;19.70;96.30;;;;;;2095148;28;19916;-68
2023/07/09 01:51:25;;;;;;;;;;;19.60;96.40;;;;;;2095051;28;20337;-68
2023/07/09 01:52:27;;;;;;;;;;;19.60;96.50;;;;;;2095289;28;19958;-68
2023/07/09 01:53:31;;;;;;;;;;;19.60;96.60;;;;;;2098126;28;19916;-68
2023/07/09 01:54:31;;;;;;;;;;;19.60;96.90;;;;;;2097253;28;19923;-68
2023/07/09 01:55:32;;;;;;;;;;;19.60;97.00;;;;;;2093646;28;20375;-68
2023/07/09 01:56:34;;;;;;;;;;;19.50;97.10;;;;;;2097161;28;20695;-68
2023/07/09 01:57:34;;;;;;;;;;;19.50;97.20;;;;;;2095047;28;20378;-68
2023/07/09 01:58:36;;;;;;;;;;;19.50;97.20;;;;;;2089337;28;19913;-68
2023/07/09 01:59:40;;;;;;;;;;;19.50;97.30;;;;;;2090189;28;19973;-69
2023/07/09 02:00:41;;;;;;;;;;;19.50;97.30;;;;;;2095048;28;20410;-67
2023/07/09 02:01:42;;;;;;;;;;;19.50;97.30;;;;;;2097536;28;19920;-68
2023/07/09 02:02:45;;;;;;;;;;;19.50;97.30;;;;;;2097229;28;19917;-67
2023/07/09 02:03:45;;;;;;;;;;;19.50;97.50;;;;;;2096455;28;20011;-68
2023/07/09 02:04:47;;;;;;;;;;;19.50;97.40;;;;;;2090976;28;19955;-67
2023/07/09 02:05:47;;;;;;;;;;;19.50;97.50;;;;;;2096348;28;19952;-67
2023/07/09 02:06:49;;;;;;;;;;;19.50;97.60;;;;;;2097297;28;19916;-68
2023/07/09 02:07:49;;;;;;;;;;;19.50;97.70;;;;;;2098278;28;19912;-67
2023/07/09 02:08:50;;;;;;;;;;;19.50;97.80;;;;;;2090790;28;19969;-68
2023/07/09 02:09:51;;;;;;;;;;;19.50;97.70;;;;;;2093290;28;20007;-67
2023/07/09 02:10:51;;;;;;;;;;;19.50;97.70;;;;;;2095946;28;20585;-67
2023/07/09 02:11:52;;;;;;;;;;;19.50;97.70;;;;;;2098936;28;19967;-67
2023/07/09 02:12:53;;;;;;;;;;;19.40;97.60;;;;;;2094835;28;20372;-67
2023/07/09 02:13:53;;;;;;;;;;;19.50;97.60;;;;;;2087937;28;19921;-67
2023/07/09 02:14:53;;;;;;;;;;;19.40;97.80;;;;;;2085198;28;19962;-67
2023/07/09 02:15:54;;;;;;;;;;;19.40;97.90;;;;;;2097801;28;19923;-68
2023/07/09 02:16:54;;;;;;;;;;;19.40;97.70;;;;;;2094691;28;19924;-67
2023/07/09 02:17:55;;;;;;;;;;;19.40;97.40;;;;;;2095111;28;19917;-66
2023/07/09 02:18:55;;;;;;;;;;;19.30;97.30;;;;;;2094766;28;19939;-67
2023/07/09 02:19:56;;;;;;;;;;;19.30;97.10;;;;;;2098164;28;20367;-66
2023/07/09 02:20:56;;;;;;;;;;;19.30;97.00;;;;;;2087850;28;19917;-66
2023/07/09 02:21:57;;;;;;;;;;;19.30;96.70;;;;;;2092764;28;19950;-67
2023/07/09 02:22:57;;;;;;;;;;;19.30;96.70;;;;;;2097300;28;20532;-67
2023/07/09 02:23:58;;;;;;;;;;;19.20;96.70;;;;;;2096977;28;19912;-67
2023/07/09 02:24:59;;;;;;;;;;;19.20;96.70;;;;;;2097521;28;19916;-68
2023/07/09 02:26:00;;;;;;;;;;;19.20;96.60;;;;;;2084478;28;20489;-68
2023/07/09 02:27:01;;;;;;;;;;;19.20;96.80;;;;;;2093186;28;20411;-67
2023/07/09 02:28:02;;;;;;;;;;;19.20;96.90;;;;;;2095919;28;19917;-67
2023/07/09 02:29:02;;;;;;;;;;;19.10;96.90;;;;;;2098689;28;20074;-68
2023/07/09 02:30:04;;;;;;;;;;;19.10;97.00;;;;;;2092679;28;19912;-68
2023/07/09 02:31:04;;;;;;;;;;;19.10;97.10;;;;;;2087225;28;19939;-68
2023/07/09 02:32:05;;;;;;;;;;;19.20;97.30;;;;;;2096363;28;19927;-69
2023/07/09 02:33:06;;;;;;;;;;;19.20;97.40;;;;;;2097618;28;19961;-68
2023/07/09 02:34:07;;;;;;;;;;;19.10;97.30;;;;;;2095686;28;19916;-68
2023/07/09 02:35:07;;;;;;;;;;;19.20;97.20;;;;;;2095039;28;19923;-69
2023/07/09 02:36:08;;;;;;;;;;;19.20;97.30;;;;;;2086642;28;19932;-69
2023/07/09 02:37:09;;;;;;;;;;;19.10;97.30;;;;;;2100187;28;20003;-69
2023/07/09 02:38:09;;;;;;;;;;;19.10;97.30;;;;;;2097079;28;20002;-69
2023/07/09 02:39:11;;;;;;;;;;;19.10;97.40;;;;;;2091750;28;19959;-67
2023/07/09 02:40:11;;;;;;;;;;;19.10;97.60;;;;;;2087908;28;19959;-66
2023/07/09 02:41:12;;;;;;;;;;;19.10;97.50;;;;;;2087073;28;19916;-67
2023/07/09 02:42:14;;;;;;;;;;;19.10;97.90;;;;;;2093931;28;19984;-69
2023/07/09 02:43:14;;;;;;;;;;;19.00;97.80;;;;;;2094786;28;20378;-69
2023/07/09 02:44:15;;;;;;;;;;;19.00;97.90;;;;;;2095757;28;19921;-68
2023/07/09 02:45:17;;;;;;;;;;;19.00;97.90;;;;;;2094872;28;19913;-68
2023/07/09 02:46:17;;;;;;;;;;;19.00;98.20;;;;;;2093612;28;19916;-68
2023/07/09 02:47:18;;;;;;;;;;;18.90;98.30;;;;;;2100478;28;20403;-68
2023/07/09 02:48:19;;;;;;;;;;;18.90;98.40;;;;;;2092149;28;19978;-68
2023/07/09 02:49:19;;;;;;;;;;;18.90;98.60;;;;;;2094207;28;19978;-68
2023/07/09 02:50:21;;;;;;;;;;;18.90;98.40;;;;;;2090946;28;20443;-67
2023/07/09 02:51:22;;;;;;;;;;;18.80;98.20;;;;;;2095625;28;19916;-68
2023/07/09 02:52:22;;;;;;;;;;;18.80;98.00;;;;;;2095641;28;20280;-68
2023/07/09 02:53:23;;;;;;;;;;;18.80;98.10;;;;;;2098796;28;20019;-68
2023/07/09 02:54:23;;;;;;;;;;;18.80;98.10;;;;;;2088087;28;20003;-68
2023/07/09 02:55:24;;;;;;;;;;;18.70;97.90;;;;;;2096180;28;19958;-67
2023/07/09 02:56:24;;;;;;;;;;;18.80;97.90;;;;;;2091689;28;20026;-68
2023/07/09 02:57:25;;;;;;;;;;;18.80;97.70;;;;;;2096864;28;20399;-68
2023/07/09 02:58:25;;;;;;;;;;;18.70;97.70;;;;;;2094784;28;20458;-68
2023/07/09 02:59:29;;;;;;;;;;;18.70;97.80;;;;;;2094878;28;20034;-68
2023/07/09 03:00:30;;;;;;;;;;;18.70;98.10;;;;;;2087017;28;20292;-69
2023/07/09 03:01:33;;;;;;;;;;;18.70;98.10;;;;;;2088201;28;20391;-70
2023/07/09 03:02:34;;;;;;;;;;;18.70;98.20;;;;;;2090073;28;19967;-68
2023/07/09 03:03:35;;;;;;;;;;;18.70;98.20;;;;;;2096274;28;19959;-68
2023/07/09 03:04:35;;;;;;;;;;;18.70;98.10;;;;;;2096239;28;19912;-68
2023/07/09 03:05:36;;;;;;;;;;;18.70;98.10;;;;;;2098673;28;19924;-68
2023/07/09 03:06:38;;;;;;;;;;;18.70;98.10;;;;;;2089326;28;19924;-68
2023/07/09 03:07:38;;;;;;;;;;;18.70;98.10;;;;;;2093839;28;19920;-68
2023/07/09 03:08:39;;;;;;;;;;;18.70;98.10;;;;;;2089823;28;19912;-68
2023/07/09 03:09:39;;;;;;;;;;;18.70;98.30;;;;;;2092415;28;20375;-68
2023/07/09 03:10:40;;;;;;;;;;;18.70;98.10;;;;;;2097166;28;20288;-69
2023/07/09 03:11:40;;;;;;;;;;;18.70;98.20;;;;;;2096196;28;19920;-68
2023/07/09 03:12:41;;;;;;;;;;;18.70;98.40;;;;;;2096036;28;19920;-67
2023/07/09 03:13:41;;;;;;;;;;;18.70;98.30;;;;;;2095910;28;20302;-67
2023/07/09 03:14:42;;;;;;;;;;;18.70;98.30;;;;;;2097121;28;20298;-67
2023/07/09 03:15:42;;;;;;;;;;;18.70;98.00;;;;;;2094532;28;19994;-67
2023/07/09 03:16:43;;;;;;;;;;;18.70;98.00;;;;;;2084822;28;20379;-67
2023/07/09 03:17:44;;;;;;;;;;;18.70;98.00;;;;;;2086599;28;19913;-67
2023/07/09 03:18:44;;;;;;;;;;;18.70;97.80;;;;;;2097963;28;20465;-69
2023/07/09 03:19:45;;;;;;;;;;;18.70;97.60;;;;;;2092338;28;19999;-67
2023/07/09 03:20:45;;;;;;;;;;;18.70;97.40;;;;;;2096130;28;20415;-68
2023/07/09 03:21:46;;;;;;;;;;;18.70;97.20;;;;;;2097484;28;20463;-67
2023/07/09 03:22:46;;;;;;;;;;;18.70;97.30;;;;;;2086968;28;19916;-68
2023/07/09 03:23:47;;;;;;;;;;;18.70;97.50;;;;;;2095070;28;19920;-77
2023/07/09 03:24:47;;;;;;;;;;;18.60;97.70;;;;;;2096428;28;20862;-78
2023/07/09 03:25:47;;;;;;;;;;;18.70;97.60;;;;;;2094837;28;19924;-68
2023/07/09 03:26:48;;;;;;;;;;;18.70;97.60;;;;;;2094967;28;19913;-77
2023/07/09 03:27:48;;;;;;;;;;;18.70;97.60;;;;;;2098085;28;19916;-69
2023/07/09 03:28:49;;;;;;;;;;;18.70;97.40;;;;;;2091752;28;20008;-69
2023/07/09 03:29:49;;;;;;;;;;;18.70;97.50;;;;;;2096069;28;20078;-69
2023/07/09 03:30:52;;;;;;;;;;;18.70;97.60;;;;;;2097529;28;20374;-68
2023/07/09 03:31:53;;;;;;;;;;;18.70;97.40;;;;;;2091735;28;19949;-68
2023/07/09 03:32:53;;;;;;;;;;;18.70;97.50;;;;;;2094886;28;20187;-69
2023/07/09 03:33:54;;;;;;;;;;;18.70;97.50;;;;;;2094801;28;19913;-69
2023/07/09 03:34:54;;;;;;;;;;;18.70;97.50;;;;;;2095091;28;19974;-69
2023/07/09 03:35:55;;;;;;;;;;;18.70;97.60;;;;;;2095551;28;20432;-69
2023/07/09 03:36:56;;;;;;;;;;;18.70;97.50;;;;;;2095254;28;19913;-69
2023/07/09 03:37:56;;;;;;;;;;;18.70;97.60;;;;;;2093307;28;19909;-69
2023/07/09 03:38:56;;;;;;;;;;;18.70;97.60;;;;;;2091427;28;19942;-69
2023/07/09 03:39:57;;;;;;;;;;;18.80;97.60;;;;;;2093429;28;19916;-69
2023/07/09 03:40:57;;;;;;;;;;;18.70;97.50;;;;;;2091327;28;19916;-69
2023/07/09 03:41:58;;;;;;;;;;;18.80;97.50;;;;;;2093725;28;19923;-70
2023/07/09 03:42:58;;;;;;;;;;;18.80;97.70;;;;;;2092126;28;20461;-69
2023/07/09 03:43:59;;;;;;;;;;;18.80;97.60;;;;;;2092549;28;20140;-69
2023/07/09 03:44:59;;;;;;;;;;;18.80;97.60;;;;;;2095278;28;19924;-69
2023/07/09 03:46:00;;;;;;;;;;;18.80;97.50;;;;;;2097858;28;19923;-70
2023/07/09 03:47:00;;;;;;;;;;;18.80;97.70;;;;;;2095902;28;19912;-69
2023/07/09 03:48:01;;;;;;;;;;;18.80;97.60;;;;;;2095924;28;19912;-69
2023/07/09 03:49:01;;;;;;;;;;;18.90;97.60;;;;;;2097683;28;19924;-71
2023/07/09 03:50:02;;;;;;;;;;;18.90;97.60;;;;;;2092911;28;20010;-69
2023/07/09 03:51:03;;;;;;;;;;;18.90;97.60;;;;;;2091755;28;19917;-69
2023/07/09 03:52:04;;;;;;;;;;;18.90;97.60;;;;;;2094975;28;19916;-71
2023/07/09 03:53:05;;;;;;;;;;;18.90;97.70;;;;;;2086716;28;20308;-70
2023/07/09 03:54:07;;;;;;;;;;;18.90;97.60;;;;;;2094597;28;19928;-70
2023/07/09 03:55:07;;;;;;;;;;;18.90;97.50;;;;;;2090336;28;20304;-69
2023/07/09 03:56:08;;;;;;;;;;;18.90;97.50;;;;;;2095311;28;19999;-69
2023/07/09 03:57:08;;;;;;;;;;;19.00;97.70;;;;;;2091227;28;19960;-69
2023/07/09 03:58:09;;;;;;;;;;;18.90;97.50;;;;;;2095843;28;19927;-69
2023/07/09 03:59:09;;;;;;;;;;;19.00;97.50;;;;;;2095927;28;19997;-68
2023/07/09 04:00:10;;;;;;;;;;;19.00;97.50;;;;;;2091280;28;19923;-68
2023/07/09 04:01:16;;;;;;;;;;;19.00;97.50;;;;;;2097114;28;19918;-69
2023/07/09 04:02:17;;;;;;;;;;;19.00;97.60;;;;;;2094125;28;20394;-68
2023/07/09 04:03:17;;;;;;;;;;;19.10;97.40;;;;;;2094727;28;19916;-69
2023/07/09 04:04:21;;;;;;;;;;;19.10;97.40;;;;;;2095256;28;20372;-69
2023/07/09 04:05:21;;;;;;;;;;;19.10;97.30;;;;;;2097383;28;19909;-68
2023/07/09 04:06:22;;;;;;;;;;;19.20;97.20;;;;;;2096713;28;20317;-69
2023/07/09 04:07:23;;;;;;;;;;;19.20;96.90;;;;;;2094831;28;20352;-69
2023/07/09 04:08:25;;;;;;;;;;;19.20;96.90;;;;;;2088956;28;20025;-69
2023/07/09 04:09:25;;;;;;;;;;;19.30;96.70;;;;;;2089173;28;19955;-68
2023/07/09 04:10:26;;;;;;;;;;;19.30;96.70;;;;;;2094456;28;20394;-69
2023/07/09 04:11:26;;;;;;;;;;;19.30;96.70;;;;;;2094655;28;19909;-69
2023/07/09 04:12:27;;;;;;;;;;;19.40;96.70;;;;;;2095436;28;20016;-69
2023/07/09 04:13:28;;;;;;;;;;;19.60;96.60;;;;;;2095219;28;19974;-69
2023/07/09 04:14:29;;;;;;;;;;;19.80;96.20;;;;;;2096614;28;19921;-69
2023/07/09 04:15:29;;;;;;;;;;;20.00;95.80;;;;;;2076544;28;19917;-69
2023/07/09 04:16:30;;;;;;;;;;;20.30;95.00;;;;;;2086152;28;19967;-69
2023/07/09 04:17:31;;;;;;;;;;;20.70;94.40;;;;;;2095889;28;20078;-69
2023/07/09 04:18:31;;;;;;;;;;;21.00;93.30;;;;;;2097268;28;19916;-69
2023/07/09 04:19:31;;;;;;;;;;;21.40;92.30;;;;;;2094497;28;20402;-69
2023/07/09 04:20:34;;;;;;;;;;;21.70;91.60;;;;;;2093796;28;19936;-69
2023/07/09 04:21:35;;;;;;;;;;;22.00;90.80;;;;;;2092802;28;20277;-69
2023/07/09 04:22:35;;;;;;;;;;;22.40;90.00;;;;;;2094842;28;19939;-69
2023/07/09 04:23:36;;;;;;;;;;;22.70;88.50;;;;;;2094933;28;19912;-72
2023/07/09 04:24:36;;;;;;;;;;;22.90;87.30;;;;;;2097717;28;19912;-69
2023/07/09 04:25:37;;;;;;;;;;;23.10;86.20;;;;;;2092223;28;19916;-69
2023/07/09 04:26:38;;;;;;;;;;;23.20;85.00;;;;;;2096433;28;19938;-69
2023/07/09 04:27:39;;;;;;;;;;;23.20;84.40;;;;;;2097694;28;20401;-69
2023/07/09 04:28:40;;;;;;;;;;;23.40;83.70;;;;;;2090932;28;19916;-69
2023/07/09 04:29:40;;;;;;;;;;;23.50;83.20;;;;;;2096536;28;19923;-69
2023/07/09 04:30:47;;;;;;;;;;;23.70;82.60;;;;;;2096839;28;20383;-70
2023/07/09 04:31:48;;;;;;;;;;;23.80;81.20;;;;;;2096101;28;19917;-69
2023/07/09 04:32:49;;;;;;;;;;;24.00;80.90;;;;;;2096093;28;20042;-70
2023/07/09 04:33:52;;;;;;;;;;;24.10;80.10;;;;;;2098925;28;20017;-69
2023/07/09 04:34:53;;;;;;;;;;;24.30;79.50;;;;;;2094462;28;19916;-69
2023/07/09 04:35:53;;;;;;;;;;;24.30;78.50;;;;;;2093151;28;20331;-69
2023/07/09 04:36:54;;;;;;;;;;;24.50;78.00;;;;;;2095664;28;19916;-69
2023/07/09 04:37:54;;;;;;;;;;;24.70;77.20;;;;;;2098587;28;19924;-70
2023/07/09 04:38:55;;;;;;;;;;;24.80;76.60;;;;;;2091778;28;20403;-69
2023/07/09 04:39:55;;;;;;;;;;;24.80;76.10;;;;;;2096434;28;19917;-69
2023/07/09 04:40:56;;;;;;;;;;;24.70;76.00;;;;;;2097108;28;19942;-69
2023/07/09 04:41:56;;;;;;;;;;;24.80;75.50;;;;;;2096475;28;20318;-71
2023/07/09 04:42:57;;;;;;;;;;;25.00;75.20;;;;;;2099754;28;19922;-70
2023/07/09 04:43:57;;;;;;;;;;;25.10;74.90;;;;;;2097964;28;20374;-70
2023/07/09 04:44:57;;;;;;;;;;;25.20;74.40;;;;;;2098097;28;19916;-69
2023/07/09 04:45:58;;;;;;;;;;;25.20;73.90;;;;;;2098591;28;19922;-68
2023/07/09 04:46:58;;;;;;;;;;;25.20;73.60;;;;;;2095760;28;20101;-68
2023/07/09 04:47:59;;;;;;;;;;;25.30;73.50;;;;;;2096247;28;20085;-70
2023/07/09 04:49:00;;;;;;;;;;;25.40;73.80;;;;;;2096856;28;20529;-68
2023/07/09 04:50:01;;;;;;;;;;;25.60;72.50;;;;;;2096047;28;19916;-68
2023/07/09 04:51:01;;;;;;;;;;;25.70;71.30;;;;;;2099159;28;19923;-68
2023/07/09 04:52:02;;;;;;;;;;;25.80;70.90;;;;;;2098101;28;19951;-69
2023/07/09 04:53:03;;;;;;;;;;;25.90;70.70;;;;;;2094078;28;19921;-68
2023/07/09 04:54:04;;;;;;;;;;;26.00;69.90;;;;;;2097828;28;19919;-69
2023/07/09 04:55:05;;;;;;;;;;;26.00;69.70;;;;;;2098781;28;19922;-68
2023/07/09 04:56:05;;;;;;;;;;;26.10;69.70;;;;;;2095478;28;20002;-69
2023/07/09 04:57:06;;;;;;;;;;;26.10;69.20;;;;;;2095758;28;19928;-69
2023/07/09 04:58:07;;;;;;;;;;;26.10;69.20;;;;;;2095502;28;19912;-69
2023/07/09 04:59:07;;;;;;;;;;;26.20;68.80;;;;;;2096184;28;19924;-69
2023/07/09 05:00:08;;;;;;;;;;;26.30;68.60;;;;;;2097106;28;19920;-69
2023/07/09 05:01:09;;;;;;;;;;;26.40;68.10;;;;;;2099555;28;19913;-69
2023/07/09 05:02:09;;;;;;;;;;;26.40;67.90;;;;;;2093417;28;19917;-69
2023/07/09 05:03:10;;;;;;;;;;;26.50;67.20;;;;;;2094721;28;19922;-70
2023/07/09 05:04:10;;;;;;;;;;;26.60;66.60;;;;;;2099569;28;19912;-69
2023/07/09 05:05:11;;;;;;;;;;;26.60;66.90;;;;;;2096358;28;19916;-69
2023/07/09 05:06:12;;;;;;;;;;;26.60;66.90;;;;;;2096359;28;19966;-69
2023/07/09 05:07:12;;;;;;;;;;;26.60;66.10;;;;;;2095096;28;20252;-68
2023/07/09 05:08:13;;;;;;;;;;;26.80;65.70;;;;;;2092288;28;19912;-69
2023/07/09 05:09:14;;;;;;;;;;;26.90;65.30;;;;;;2094644;28;19941;-69
2023/07/09 05:10:14;;;;;;;;;;;26.90;65.40;;;;;;2093202;28;19916;-69
2023/07/09 05:11:15;;;;;;;;;;;26.90;65.80;;;;;;2097832;28;19923;-69
2023/07/09 05:12:16;;;;;;;;;;;26.90;65.90;;;;;;2099436;28;19912;-69
2023/07/09 05:13:16;;;;;;;;;;;26.80;65.90;;;;;;2087345;28;19924;-70
2023/07/09 05:14:17;;;;;;;;;;;26.90;65.80;;;;;;2087276;28;19923;-70
2023/07/09 05:15:18;;;;;;;;;;;27.10;65.30;;;;;;2095584;28;19920;-70
2023/07/09 05:16:19;;;;;;;;;;;27.10;64.90;;;;;;2098977;28;20352;-69
2023/07/09 05:17:20;;;;;;;;;;;27.00;65.10;;;;;;2097577;28;20007;-71
2023/07/09 05:18:20;;;;;;;;;;;27.10;64.60;;;;;;2093945;28;19916;-70
2023/07/09 05:19:21;;;;;;;;;;;27.10;64.30;;;;;;2096727;28;19916;-71
2023/07/09 05:20:21;;;;;;;;;;;27.20;64.30;;;;;;2089670;28;19928;-71
2023/07/09 05:21:21;;;;;;;;;;;27.30;63.70;;;;;;2095676;28;20470;-71
2023/07/09 05:22:22;;;;;;;;;;;27.40;63.30;;;;;;2096508;28;19956;-71
2023/07/09 05:23:24;;;;;;;;;;;27.60;62.80;;;;;;2096361;28;19920;-71
2023/07/09 05:24:24;;;;;;;;;;;27.60;62.20;;;;;;2096261;28;20290;-71
2023/07/09 05:25:25;;;;;;;;;;;27.70;62.10;;;;;;2099571;28;19985;-71
2023/07/09 05:26:25;;;;;;;;;;;27.80;61.70;;;;;;2093102;28;20014;-71
2023/07/09 05:27:26;;;;;;;;;;;27.80;61.90;;;;;;2097776;28;19916;-71
2023/07/09 05:28:27;;;;;;;;;;;27.70;62.00;;;;;;2099361;28;19912;-71
2023/07/09 05:29:28;;;;;;;;;;;27.60;62.70;;;;;;2093013;28;20306;-71
2023/07/09 05:30:28;;;;;;;;;;;27.40;62.60;;;;;;2096652;28;19951;-71
2023/07/09 05:31:29;;;;;;;;;;;27.40;62.50;;;;;;2096447;28;19919;-71
2023/07/09 05:32:29;;;;;;;;;;;27.40;62.60;;;;;;2096760;28;19916;-71
2023/07/09 05:33:30;;;;;;;;;;;27.30;62.70;;;;;;2095537;28;20013;-71
2023/07/09 05:34:31;;;;;;;;;;;27.20;62.90;;;;;;2098638;28;19912;-70
2023/07/09 05:35:31;;;;;;;;;;;27.20;63.10;;;;;;2092979;28;19912;-70
2023/07/09 05:36:32;;;;;;;;;;;27.20;62.80;;;;;;2097842;28;19916;-70
2023/07/09 05:37:32;;;;;;;;;;;27.20;62.90;;;;;;2099703;28;20386;-70
2023/07/09 05:38:33;;;;;;;;;;;27.20;62.80;;;;;;2092452;28;19961;-70
2023/07/09 05:39:34;;;;;;;;;;;27.30;62.90;;;;;;2095302;28;19923;-70
2023/07/09 05:40:34;;;;;;;;;;;27.40;62.40;;;;;;2090989;28;19971;-70
2023/07/09 05:41:35;;;;;;;;;;;27.40;62.80;;;;;;2095401;28;19959;-70
2023/07/09 05:42:35;;;;;;;;;;;27.30;62.20;;;;;;2092185;28;20009;-70
2023/07/09 05:43:36;;;;;;;;;;;27.30;62.10;;;;;;2093190;28;19934;-70
2023/07/09 05:44:36;;;;;;;;;;;27.40;62.00;;;;;;2097289;28;20349;-70
2023/07/09 05:45:39;;;;;;;;;;;27.50;61.70;;;;;;2099191;28;19963;-69
2023/07/09 05:46:40;;;;;;;;;;;27.50;61.70;;;;;;2092960;28;19923;-69
2023/07/09 05:47:40;;;;;;;;;;;27.40;61.70;;;;;;2095738;28;20515;-71
2023/07/09 05:48:41;;;;;;;;;;;27.30;62.00;;;;;;2096473;28;19944;-70
2023/07/09 05:49:41;;;;;;;;;;;27.20;62.30;;;;;;2096903;28;19978;-69
2023/07/09 05:50:42;;;;;;;;;;;27.20;62.40;;;;;;2094748;28;19923;-69
2023/07/09 05:51:42;;;;;;;;;;;27.20;62.30;;;;;;2095869;28;19950;-71
2023/07/09 05:52:43;;;;;;;;;;;27.30;62.50;;;;;;2098275;28;19917;-69
2023/07/09 05:53:44;;;;;;;;;;;27.40;62.70;;;;;;2090486;28;19920;-71
2023/07/09 05:54:44;;;;;;;;;;;27.50;62.50;;;;;;2094077;28;20299;-70
2023/07/09 05:55:45;;;;;;;;;;;27.60;62.30;;;;;;2097675;28;19962;-71